sensor_id;sensor_type;location;lat;lon;timestamp;temperature;humidity
58582;DHT22;44361;51.476;5.700;2023-02-13T00:02:07;6.40;99.90
58582;DHT22;44361;51.476;5.700;2023-02-13T00:04:33;6.40;99.90
58582;DHT22;44361;51.476;5.700;2023-02-13T00:06:59;6.40;99.90
58582;DHT22;44361;51.476;5.700;2023-02-13T00:09:24;6.40;99.90
58582;DHT22;44361;51.476;5.700;2023-02-13T00:11:50;6.40;99.90
58582;DHT22;44361;51.476;5.700;2023-02-13T00:14:16;6.40;99.90
58582;DHT22;44361;51.476;5.700;2023-02-13T00:16:41;6.40;99.90
58582;DHT22;44361;51.476;5.700;2023-02-13T00:19:07;6.40;99.90
58582;DHT22;44361;51.476;5.700;2023-02-13T00:21:32;6.40;99.90
58582;DHT22;44361;51.476;5.700;2023-02-13T00:23:58;6.40;99.90
58582;DHT22;44361;51.476;5.700;2023-02-13T00:26:23;6.40;99.90
58582;DHT22;44361;51.476;5.700;2023-02-13T00:28:49;6.40;99.90
58582;DHT22;44361;51.476;5.700;2023-02-13T00:31:17;6.40;99.90
58582;DHT22;44361;51.476;5.700;2023-02-13T00:33:43;6.40;99.90
58582;DHT22;44361;51.476;5.700;2023-02-13T00:36:14;6.40;99.90
58582;DHT22;44361;51.476;5.700;2023-02-13T00:38:40;6.40;99.90
58582;DHT22;44361;51.476;5.700;2023-02-13T00:41:07;6.40;99.90
58582;DHT22;44361;51.476;5.700;2023-02-13T00:43:33;6.40;99.90
58582;DHT22;44361;51.476;5.700;2023-02-13T00:45:59;6.40;99.90
58582;DHT22;44361;51.476;5.700;2023-02-13T00:48:26;6.30;99.90
58582;DHT22;44361;51.476;5.700;2023-02-13T00:50:51;6.30;99.90
58582;DHT22;44361;51.476;5.700;2023-02-13T00:53:21;6.40;99.90
58582;DHT22;44361;51.476;5.700;2023-02-13T00:55:48;6.40;99.90
58582;DHT22;44361;51.476;5.700;2023-02-13T00:58:14;6.40;99.90
58582;DHT22;44361;51.476;5.700;2023-02-13T01:00:40;6.40;99.90
58582;DHT22;44361;51.476;5.700;2023-02-13T01:03:06;6.40;99.90
58582;DHT22;44361;51.476;5.700;2023-02-13T01:05:32;6.40;99.90
58582;DHT22;44361;51.476;5.700;2023-02-13T01:07:57;6.40;99.90
58582;DHT22;44361;51.476;5.700;2023-02-13T01:10:24;6.40;99.90
58582;DHT22;44361;51.476;5.700;2023-02-13T01:12:49;6.40;99.90
58582;DHT22;44361;51.476;5.700;2023-02-13T01:15:15;6.40;99.90
58582;DHT22;44361;51.476;5.700;2023-02-13T01:17:40;6.50;99.90
58582;DHT22;44361;51.476;5.700;2023-02-13T01:20:08;6.40;99.90
58582;DHT22;44361;51.476;5.700;2023-02-13T01:22:33;6.30;99.90
58582;DHT22;44361;51.476;5.700;2023-02-13T01:24:59;6.20;99.90
58582;DHT22;44361;51.476;5.700;2023-02-13T01:27:26;6.20;99.90
58582;DHT22;44361;51.476;5.700;2023-02-13T01:29:52;6.10;99.90
58582;DHT22;44361;51.476;5.700;2023-02-13T01:32:18;6.00;99.90
58582;DHT22;44361;51.476;5.700;2023-02-13T01:34:43;5.90;99.90
58582;DHT22;44361;51.476;5.700;2023-02-13T01:37:09;5.80;99.90
58582;DHT22;44361;51.476;5.700;2023-02-13T01:39:34;5.70;99.90
58582;DHT22;44361;51.476;5.700;2023-02-13T01:42:00;5.60;99.90
58582;DHT22;44361;51.476;5.700;2023-02-13T01:47:35;5.50;99.90
58582;DHT22;44361;51.476;5.700;2023-02-13T01:50:12;5.40;99.90
58582;DHT22;44361;51.476;5.700;2023-02-13T01:52:43;5.30;99.90
58582;DHT22;44361;51.476;5.700;2023-02-13T01:55:11;5.20;99.90
58582;DHT22;44361;51.476;5.700;2023-02-13T01:57:39;5.20;99.90
58582;DHT22;44361;51.476;5.700;2023-02-13T02:00:12;5.10;99.90
58582;DHT22;44361;51.476;5.700;2023-02-13T02:02:43;5.10;99.90
58582;DHT22;44361;51.476;5.700;2023-02-13T02:05:10;5.00;99.90
58582;DHT22;44361;51.476;5.700;2023-02-13T02:07:38;5.00;99.90
58582;DHT22;44361;51.476;5.700;2023-02-13T02:10:08;5.00;99.90
58582;DHT22;44361;51.476;5.700;2023-02-13T02:15:09;4.80;99.90
58582;DHT22;44361;51.476;5.700;2023-02-13T02:17:34;4.80;99.90
58582;DHT22;44361;51.476;5.700;2023-02-13T02:20:34;4.80;99.90
58582;DHT22;44361;51.476;5.700;2023-02-13T02:23:30;4.80;99.90
58582;DHT22;44361;51.476;5.700;2023-02-13T02:32:16;4.70;99.90
58582;DHT22;44361;51.476;5.700;2023-02-13T02:35:08;4.70;99.90
58582;DHT22;44361;51.476;5.700;2023-02-13T02:40:32;4.70;99.90
58582;DHT22;44361;51.476;5.700;2023-02-13T02:54:28;4.50;99.90
58582;DHT22;44361;51.476;5.700;2023-02-13T02:57:20;4.50;99.90
58582;DHT22;44361;51.476;5.700;2023-02-13T02:59:48;4.50;99.90
58582;DHT22;44361;51.476;5.700;2023-02-13T03:02:33;4.40;99.90
58582;DHT22;44361;51.476;5.700;2023-02-13T03:05:34;4.40;99.90
58582;DHT22;44361;51.476;5.700;2023-02-13T03:08:19;4.30;99.90
58582;DHT22;44361;51.476;5.700;2023-02-13T03:11:05;4.20;99.90
58582;DHT22;44361;51.476;5.700;2023-02-13T03:13:49;4.10;99.90
58582;DHT22;44361;51.476;5.700;2023-02-13T03:16:18;4.10;99.90
58582;DHT22;44361;51.476;5.700;2023-02-13T03:19:04;4.10;99.90
58582;DHT22;44361;51.476;5.700;2023-02-13T03:21:58;4.00;99.90
58582;DHT22;44361;51.476;5.700;2023-02-13T03:24:52;4.10;99.90
58582;DHT22;44361;51.476;5.700;2023-02-13T03:30:57;4.00;99.90
58582;DHT22;44361;51.476;5.700;2023-02-13T03:39:19;3.90;99.90
58582;DHT22;44361;51.476;5.700;2023-02-13T03:41:48;3.90;99.90
58582;DHT22;44361;51.476;5.700;2023-02-13T03:44:21;3.80;99.90
58582;DHT22;44361;51.476;5.700;2023-02-13T03:46:50;3.80;99.90
58582;DHT22;44361;51.476;5.700;2023-02-13T03:49:25;3.80;99.90
58582;DHT22;44361;51.476;5.700;2023-02-13T03:52:18;3.70;99.90
58582;DHT22;44361;51.476;5.700;2023-02-13T03:55:35;3.60;99.90
58582;DHT22;44361;51.476;5.700;2023-02-13T03:57:56;3.70;99.90
58582;DHT22;44361;51.476;5.700;2023-02-13T04:00:48;3.60;99.90
58582;DHT22;44361;51.476;5.700;2023-02-13T04:03:36;3.60;99.90
58582;DHT22;44361;51.476;5.700;2023-02-13T04:06:31;3.50;99.90
58582;DHT22;44361;51.476;5.700;2023-02-13T04:08:58;3.40;99.90
58582;DHT22;44361;51.476;5.700;2023-02-13T04:11:36;3.40;99.90
58582;DHT22;44361;51.476;5.700;2023-02-13T04:16:58;3.30;99.90
58582;DHT22;44361;51.476;5.700;2023-02-13T04:19:27;3.30;99.90
58582;DHT22;44361;51.476;5.700;2023-02-13T04:21:58;3.20;99.90
58582;DHT22;44361;51.476;5.700;2023-02-13T04:24:25;3.20;99.90
58582;DHT22;44361;51.476;5.700;2023-02-13T04:26:51;3.20;99.90
58582;DHT22;44361;51.476;5.700;2023-02-13T04:29:17;3.20;99.90
58582;DHT22;44361;51.476;5.700;2023-02-13T04:31:43;3.10;99.90
58582;DHT22;44361;51.476;5.700;2023-02-13T04:34:09;3.10;99.90
58582;DHT22;44361;51.476;5.700;2023-02-13T04:36:34;3.10;99.90
58582;DHT22;44361;51.476;5.700;2023-02-13T04:39:00;3.00;99.90
58582;DHT22;44361;51.476;5.700;2023-02-13T04:41:26;3.00;99.90
58582;DHT22;44361;51.476;5.700;2023-02-13T04:43:52;3.00;99.90
58582;DHT22;44361;51.476;5.700;2023-02-13T04:46:18;2.90;99.90
58582;DHT22;44361;51.476;5.700;2023-02-13T04:48:44;2.90;99.90
58582;DHT22;44361;51.476;5.700;2023-02-13T04:51:09;2.90;99.90
58582;DHT22;44361;51.476;5.700;2023-02-13T04:53:35;2.90;99.90
58582;DHT22;44361;51.476;5.700;2023-02-13T04:56:00;2.90;99.90
58582;DHT22;44361;51.476;5.700;2023-02-13T04:58:26;2.90;99.90
58582;DHT22;44361;51.476;5.700;2023-02-13T05:00:52;2.90;99.90
58582;DHT22;44361;51.476;5.700;2023-02-13T05:03:18;2.90;99.90
58582;DHT22;44361;51.476;5.700;2023-02-13T05:05:43;2.90;99.90
58582;DHT22;44361;51.476;5.700;2023-02-13T05:08:09;2.90;99.90
58582;DHT22;44361;51.476;5.700;2023-02-13T05:10:35;2.80;99.90
58582;DHT22;44361;51.476;5.700;2023-02-13T05:13:01;2.80;99.90
58582;DHT22;44361;51.476;5.700;2023-02-13T05:15:26;2.80;99.90
58582;DHT22;44361;51.476;5.700;2023-02-13T05:17:52;2.80;99.90
58582;DHT22;44361;51.476;5.700;2023-02-13T05:20:18;2.60;99.90
58582;DHT22;44361;51.476;5.700;2023-02-13T05:22:49;2.60;99.90
58582;DHT22;44361;51.476;5.700;2023-02-13T05:25:34;2.60;99.90
58582;DHT22;44361;51.476;5.700;2023-02-13T05:28:01;2.50;99.90
58582;DHT22;44361;51.476;5.700;2023-02-13T05:30:27;2.50;99.90
58582;DHT22;44361;51.476;5.700;2023-02-13T05:32:52;2.50;99.90
58582;DHT22;44361;51.476;5.700;2023-02-13T05:35:22;2.50;99.90
58582;DHT22;44361;51.476;5.700;2023-02-13T05:37:49;2.40;99.90
58582;DHT22;44361;51.476;5.700;2023-02-13T05:40:14;2.40;99.90
58582;DHT22;44361;51.476;5.700;2023-02-13T05:42:41;2.40;99.90
58582;DHT22;44361;51.476;5.700;2023-02-13T05:45:08;2.30;99.90
58582;DHT22;44361;51.476;5.700;2023-02-13T05:47:34;2.30;99.90
58582;DHT22;44361;51.476;5.700;2023-02-13T05:49:59;2.30;99.90
58582;DHT22;44361;51.476;5.700;2023-02-13T05:52:25;2.30;99.90
58582;DHT22;44361;51.476;5.700;2023-02-13T05:54:51;2.30;99.90
58582;DHT22;44361;51.476;5.700;2023-02-13T05:57:16;2.30;99.90
58582;DHT22;44361;51.476;5.700;2023-02-13T05:59:42;2.20;99.90
58582;DHT22;44361;51.476;5.700;2023-02-13T06:02:07;2.20;99.90
58582;DHT22;44361;51.476;5.700;2023-02-13T06:04:33;2.20;99.90
58582;DHT22;44361;51.476;5.700;2023-02-13T06:06:58;2.20;99.90
58582;DHT22;44361;51.476;5.700;2023-02-13T06:09:24;2.10;99.90
58582;DHT22;44361;51.476;5.700;2023-02-13T06:11:50;2.10;99.90
58582;DHT22;44361;51.476;5.700;2023-02-13T06:14:15;2.20;99.90
58582;DHT22;44361;51.476;5.700;2023-02-13T06:16:41;2.10;99.90
58582;DHT22;44361;51.476;5.700;2023-02-13T06:19:07;2.10;99.90
58582;DHT22;44361;51.476;5.700;2023-02-13T06:21:32;2.00;99.90
58582;DHT22;44361;51.476;5.700;2023-02-13T06:24:02;2.00;99.90
58582;DHT22;44361;51.476;5.700;2023-02-13T06:26:28;2.00;99.90
58582;DHT22;44361;51.476;5.700;2023-02-13T06:28:54;2.00;99.90
58582;DHT22;44361;51.476;5.700;2023-02-13T06:31:19;2.00;99.90
58582;DHT22;44361;51.476;5.700;2023-02-13T06:33:45;2.00;99.90
58582;DHT22;44361;51.476;5.700;2023-02-13T06:36:10;1.90;99.90
58582;DHT22;44361;51.476;5.700;2023-02-13T06:38:36;1.90;99.90
58582;DHT22;44361;51.476;5.700;2023-02-13T06:41:02;1.80;99.90
58582;DHT22;44361;51.476;5.700;2023-02-13T06:43:27;1.90;99.90
58582;DHT22;44361;51.476;5.700;2023-02-13T06:45:53;1.80;99.90
58582;DHT22;44361;51.476;5.700;2023-02-13T06:48:19;1.80;99.90
58582;DHT22;44361;51.476;5.700;2023-02-13T06:50:44;1.80;99.90
58582;DHT22;44361;51.476;5.700;2023-02-13T06:53:10;1.80;99.90
58582;DHT22;44361;51.476;5.700;2023-02-13T06:55:36;1.80;99.90
58582;DHT22;44361;51.476;5.700;2023-02-13T06:58:04;1.70;99.90
58582;DHT22;44361;51.476;5.700;2023-02-13T07:00:29;1.80;99.90
58582;DHT22;44361;51.476;5.700;2023-02-13T07:03:00;1.70;99.90
58582;DHT22;44361;51.476;5.700;2023-02-13T07:05:26;1.70;99.90
58582;DHT22;44361;51.476;5.700;2023-02-13T07:07:52;1.80;99.90
58582;DHT22;44361;51.476;5.700;2023-02-13T07:10:17;1.70;99.90
58582;DHT22;44361;51.476;5.700;2023-02-13T07:12:43;1.70;99.90
58582;DHT22;44361;51.476;5.700;2023-02-13T07:15:08;1.70;99.90
58582;DHT22;44361;51.476;5.700;2023-02-13T07:17:34;1.70;99.90
58582;DHT22;44361;51.476;5.700;2023-02-13T07:20:00;1.80;99.90
58582;DHT22;44361;51.476;5.700;2023-02-13T07:22:25;1.80;99.90
58582;DHT22;44361;51.476;5.700;2023-02-13T07:24:51;1.80;99.90
58582;DHT22;44361;51.476;5.700;2023-02-13T07:27:17;1.80;99.90
58582;DHT22;44361;51.476;5.700;2023-02-13T07:29:42;1.90;99.90
58582;DHT22;44361;51.476;5.700;2023-02-13T07:32:08;2.00;99.90
58582;DHT22;44361;51.476;5.700;2023-02-13T07:34:33;2.00;99.90
58582;DHT22;44361;51.476;5.700;2023-02-13T07:36:59;2.10;99.90
58582;DHT22;44361;51.476;5.700;2023-02-13T07:39:24;2.10;99.90
58582;DHT22;44361;51.476;5.700;2023-02-13T07:41:50;2.10;99.90
58582;DHT22;44361;51.476;5.700;2023-02-13T07:44:16;2.20;99.90
58582;DHT22;44361;51.476;5.700;2023-02-13T07:46:42;2.20;99.90
58582;DHT22;44361;51.476;5.700;2023-02-13T07:49:07;2.30;99.90
58582;DHT22;44361;51.476;5.700;2023-02-13T07:51:33;2.40;99.90
58582;DHT22;44361;51.476;5.700;2023-02-13T07:53:58;2.50;99.90
58582;DHT22;44361;51.476;5.700;2023-02-13T07:56:25;2.50;99.90
58582;DHT22;44361;51.476;5.700;2023-02-13T07:58:51;2.60;99.90
58582;DHT22;44361;51.476;5.700;2023-02-13T08:01:16;2.60;99.90
58582;DHT22;44361;51.476;5.700;2023-02-13T08:03:47;2.70;99.90
58582;DHT22;44361;51.476;5.700;2023-02-13T08:06:12;2.80;99.90
58582;DHT22;44361;51.476;5.700;2023-02-13T08:08:38;2.80;99.90
58582;DHT22;44361;51.476;5.700;2023-02-13T08:11:06;2.90;99.90
58582;DHT22;44361;51.476;5.700;2023-02-13T08:13:51;3.00;99.90
58582;DHT22;44361;51.476;5.700;2023-02-13T08:16:18;3.10;99.90
58582;DHT22;44361;51.476;5.700;2023-02-13T08:18:43;3.10;99.90
58582;DHT22;44361;51.476;5.700;2023-02-13T08:21:09;3.20;99.90
58582;DHT22;44361;51.476;5.700;2023-02-13T08:23:34;3.30;99.90
58582;DHT22;44361;51.476;5.700;2023-02-13T08:26:00;3.30;99.90
58582;DHT22;44361;51.476;5.700;2023-02-13T08:28:29;3.40;99.90
58582;DHT22;44361;51.476;5.700;2023-02-13T08:30:55;3.40;99.90
58582;DHT22;44361;51.476;5.700;2023-02-13T08:33:20;3.40;99.90
58582;DHT22;44361;51.476;5.700;2023-02-13T08:35:46;3.50;99.90
58582;DHT22;44361;51.476;5.700;2023-02-13T08:38:11;3.60;99.90
58582;DHT22;44361;51.476;5.700;2023-02-13T08:40:37;3.60;99.90
58582;DHT22;44361;51.476;5.700;2023-02-13T08:43:04;3.70;99.90
58582;DHT22;44361;51.476;5.700;2023-02-13T08:45:30;3.80;99.90
58582;DHT22;44361;51.476;5.700;2023-02-13T08:47:57;3.90;99.90
58582;DHT22;44361;51.476;5.700;2023-02-13T08:50:23;4.00;99.90
58582;DHT22;44361;51.476;5.700;2023-02-13T08:52:49;4.10;99.90
58582;DHT22;44361;51.476;5.700;2023-02-13T08:55:14;4.20;99.90
58582;DHT22;44361;51.476;5.700;2023-02-13T08:57:40;4.30;99.90
58582;DHT22;44361;51.476;5.700;2023-02-13T09:00:06;4.40;99.90
58582;DHT22;44361;51.476;5.700;2023-02-13T09:02:32;4.50;99.90
58582;DHT22;44361;51.476;5.700;2023-02-13T09:04:57;4.70;99.90
58582;DHT22;44361;51.476;5.700;2023-02-13T09:07:23;4.80;99.90
58582;DHT22;44361;51.476;5.700;2023-02-13T09:09:49;4.90;99.90
58582;DHT22;44361;51.476;5.700;2023-02-13T09:12:15;5.00;99.90
58582;DHT22;44361;51.476;5.700;2023-02-13T09:14:41;5.00;99.90
58582;DHT22;44361;51.476;5.700;2023-02-13T09:17:07;5.20;99.90
58582;DHT22;44361;51.476;5.700;2023-02-13T09:19:33;5.20;99.90
58582;DHT22;44361;51.476;5.700;2023-02-13T09:21:59;5.30;99.90
58582;DHT22;44361;51.476;5.700;2023-02-13T09:24:24;5.40;99.90
58582;DHT22;44361;51.476;5.700;2023-02-13T09:26:50;5.40;99.90
58582;DHT22;44361;51.476;5.700;2023-02-13T09:29:16;5.50;99.90
58582;DHT22;44361;51.476;5.700;2023-02-13T09:31:41;5.60;99.90
58582;DHT22;44361;51.476;5.700;2023-02-13T09:34:07;5.60;99.90
58582;DHT22;44361;51.476;5.700;2023-02-13T09:36:32;5.70;99.90
58582;DHT22;44361;51.476;5.700;2023-02-13T09:38:59;5.70;99.90
58582;DHT22;44361;51.476;5.700;2023-02-13T09:41:28;5.80;99.90
58582;DHT22;44361;51.476;5.700;2023-02-13T09:44:17;5.90;99.90
58582;DHT22;44361;51.476;5.700;2023-02-13T09:49:32;6.10;99.90
58582;DHT22;44361;51.476;5.700;2023-02-13T09:52:00;6.20;99.90
58582;DHT22;44361;51.476;5.700;2023-02-13T09:54:26;6.30;99.90
58582;DHT22;44361;51.476;5.700;2023-02-13T10:05:44;6.70;99.90
58582;DHT22;44361;51.476;5.700;2023-02-13T10:12:00;6.90;99.90
58582;DHT22;44361;51.476;5.700;2023-02-13T10:15:02;7.10;99.90
58582;DHT22;44361;51.476;5.700;2023-02-13T10:17:34;7.30;99.90
58582;DHT22;44361;51.476;5.700;2023-02-13T10:20:37;7.40;99.90
58582;DHT22;44361;51.476;5.700;2023-02-13T10:26:01;7.60;99.90
58582;DHT22;44361;51.476;5.700;2023-02-13T10:28:36;7.70;99.90
58582;DHT22;44361;51.476;5.700;2023-02-13T10:31:09;7.80;99.90
58582;DHT22;44361;51.476;5.700;2023-02-13T10:33:48;7.80;99.90
58582;DHT22;44361;51.476;5.700;2023-02-13T10:36:35;7.90;99.90
58582;DHT22;44361;51.476;5.700;2023-02-13T10:56:08;8.70;99.90
58582;DHT22;44361;51.476;5.700;2023-02-13T10:58:58;8.80;99.90
58582;DHT22;44361;51.476;5.700;2023-02-13T11:01:55;8.80;99.90
58582;DHT22;44361;51.476;5.700;2023-02-13T11:04:21;9.00;99.90
58582;DHT22;44361;51.476;5.700;2023-02-13T11:07:01;9.00;99.90
58582;DHT22;44361;51.476;5.700;2023-02-13T11:09:27;9.00;99.90
58582;DHT22;44361;51.476;5.700;2023-02-13T11:11:53;9.00;99.90
58582;DHT22;44361;51.476;5.700;2023-02-13T11:14:24;9.00;99.90
58582;DHT22;44361;51.476;5.700;2023-02-13T11:16:54;9.20;99.90
58582;DHT22;44361;51.476;5.700;2023-02-13T11:19:30;9.30;99.90
58582;DHT22;44361;51.476;5.700;2023-02-13T11:22:30;9.40;99.90
58582;DHT22;44361;51.476;5.700;2023-02-13T11:25:03;9.40;99.90
58582;DHT22;44361;51.476;5.700;2023-02-13T11:27:33;9.40;99.90
58582;DHT22;44361;51.476;5.700;2023-02-13T11:33:00;9.50;99.90
58582;DHT22;44361;51.476;5.700;2023-02-13T11:35:35;9.60;99.90
58582;DHT22;44361;51.476;5.700;2023-02-13T11:38:19;9.60;99.90
58582;DHT22;44361;51.476;5.700;2023-02-13T11:40:48;9.70;99.90
58582;DHT22;44361;51.476;5.700;2023-02-13T11:43:30;9.70;99.90
58582;DHT22;44361;51.476;5.700;2023-02-13T11:46:02;9.80;99.90
58582;DHT22;44361;51.476;5.700;2023-02-13T11:48:28;9.90;99.90
58582;DHT22;44361;51.476;5.700;2023-02-13T11:50:54;9.90;99.90
58582;DHT22;44361;51.476;5.700;2023-02-13T11:53:24;9.90;99.90
58582;DHT22;44361;51.476;5.700;2023-02-13T11:56:04;10.00;99.90
58582;DHT22;44361;51.476;5.700;2023-02-13T11:58:30;10.10;99.90
58582;DHT22;44361;51.476;5.700;2023-02-13T12:01:29;10.10;99.90
58582;DHT22;44361;51.476;5.700;2023-02-13T12:04:04;10.10;99.90
58582;DHT22;44361;51.476;5.700;2023-02-13T12:06:32;10.10;99.90
58582;DHT22;44361;51.476;5.700;2023-02-13T12:09:09;10.20;99.90
58582;DHT22;44361;51.476;5.700;2023-02-13T12:11:43;10.30;99.90
58582;DHT22;44361;51.476;5.700;2023-02-13T12:14:10;10.40;99.90
58582;DHT22;44361;51.476;5.700;2023-02-13T12:19:11;10.40;99.90
58582;DHT22;44361;51.476;5.700;2023-02-13T12:21:47;10.50;99.90
58582;DHT22;44361;51.476;5.700;2023-02-13T12:27:09;10.70;99.90
58582;DHT22;44361;51.476;5.700;2023-02-13T12:33:07;10.70;99.90
58582;DHT22;44361;51.476;5.700;2023-02-13T12:38:06;10.80;99.90
58582;DHT22;44361;51.476;5.700;2023-02-13T12:43:43;11.00;99.90
58582;DHT22;44361;51.476;5.700;2023-02-13T12:46:29;11.00;99.90
58582;DHT22;44361;51.476;5.700;2023-02-13T12:51:49;11.00;99.90
58582;DHT22;44361;51.476;5.700;2023-02-13T13:14:05;11.20;99.90
58582;DHT22;44361;51.476;5.700;2023-02-13T13:22:18;11.30;99.90
58582;DHT22;44361;51.476;5.700;2023-02-13T13:25:02;11.40;99.90
58582;DHT22;44361;51.476;5.700;2023-02-13T13:27:35;11.40;99.90
58582;DHT22;44361;51.476;5.700;2023-02-13T13:30:15;11.40;99.90
58582;DHT22;44361;51.476;5.700;2023-02-13T13:32:43;11.40;99.90
58582;DHT22;44361;51.476;5.700;2023-02-13T13:35:17;11.50;99.90
58582;DHT22;44361;51.476;5.700;2023-02-13T13:40:36;11.70;99.90
58582;DHT22;44361;51.476;5.700;2023-02-13T13:46:16;11.80;99.90
58582;DHT22;44361;51.476;5.700;2023-02-13T13:51:16;11.80;99.90
58582;DHT22;44361;51.476;5.700;2023-02-13T14:07:46;11.80;99.90
58582;DHT22;44361;51.476;5.700;2023-02-13T14:13:00;11.90;99.90
58582;DHT22;44361;51.476;5.700;2023-02-13T14:34:06;12.00;99.40
58582;DHT22;44361;51.476;5.700;2023-02-13T14:36:37;12.00;99.10
58582;DHT22;44361;51.476;5.700;2023-02-13T14:44:24;12.00;99.70
58582;DHT22;44361;51.476;5.700;2023-02-13T14:46:52;11.90;99.80
58582;DHT22;44361;51.476;5.700;2023-02-13T14:49:34;11.90;99.70
58582;DHT22;44361;51.476;5.700;2023-02-13T14:52:04;12.00;99.50
58582;DHT22;44361;51.476;5.700;2023-02-13T14:54:37;12.00;99.70
58582;DHT22;44361;51.476;5.700;2023-02-13T14:57:17;12.00;99.60
58582;DHT22;44361;51.476;5.700;2023-02-13T14:59:47;12.00;99.70
58582;DHT22;44361;51.476;5.700;2023-02-13T15:02:25;12.00;99.50
58582;DHT22;44361;51.476;5.700;2023-02-13T15:05:06;12.00;99.70
58582;DHT22;44361;51.476;5.700;2023-02-13T15:07:36;12.00;99.70
58582;DHT22;44361;51.476;5.700;2023-02-13T15:10:26;12.00;99.80
58582;DHT22;44361;51.476;5.700;2023-02-13T15:13:00;11.90;99.80
58582;DHT22;44361;51.476;5.700;2023-02-13T15:15:34;11.90;99.90
58582;DHT22;44361;51.476;5.700;2023-02-13T15:18:08;11.90;99.90
58582;DHT22;44361;51.476;5.700;2023-02-13T15:20:37;11.90;99.90
58582;DHT22;44361;51.476;5.700;2023-02-13T15:23:04;11.80;99.90
58582;DHT22;44361;51.476;5.700;2023-02-13T15:25:36;11.80;99.90
58582;DHT22;44361;51.476;5.700;2023-02-13T15:28:04;11.70;99.90
58582;DHT22;44361;51.476;5.700;2023-02-13T15:30:35;11.80;99.90
58582;DHT22;44361;51.476;5.700;2023-02-13T15:33:11;11.70;99.90
58582;DHT22;44361;51.476;5.700;2023-02-13T15:35:39;11.60;99.90
58582;DHT22;44361;51.476;5.700;2023-02-13T15:38:28;11.60;99.90
58582;DHT22;44361;51.476;5.700;2023-02-13T15:41:04;11.50;99.90
58582;DHT22;44361;51.476;5.700;2023-02-13T15:43:39;11.60;99.90
58582;DHT22;44361;51.476;5.700;2023-02-13T15:46:28;11.50;99.90
58582;DHT22;44361;51.476;5.700;2023-02-13T15:48:57;11.60;99.90
58582;DHT22;44361;51.476;5.700;2023-02-13T15:51:25;11.50;99.90
58582;DHT22;44361;51.476;5.700;2023-02-13T15:53:57;11.40;99.90
58582;DHT22;44361;51.476;5.700;2023-02-13T15:56:24;11.30;99.90
58582;DHT22;44361;51.476;5.700;2023-02-13T15:58:50;11.30;99.90
58582;DHT22;44361;51.476;5.700;2023-02-13T16:01:17;11.20;99.90
58582;DHT22;44361;51.476;5.700;2023-02-13T16:03:45;11.20;99.90
58582;DHT22;44361;51.476;5.700;2023-02-13T16:06:14;11.20;99.90
58582;DHT22;44361;51.476;5.700;2023-02-13T16:08:45;11.20;99.90
58582;DHT22;44361;51.476;5.700;2023-02-13T16:14:05;11.10;99.90
58582;DHT22;44361;51.476;5.700;2023-02-13T16:19:21;11.10;99.90
58582;DHT22;44361;51.476;5.700;2023-02-13T16:21:48;10.90;99.90
58582;DHT22;44361;51.476;5.700;2023-02-13T16:24:15;10.70;99.90
58582;DHT22;44361;51.476;5.700;2023-02-13T16:26:42;10.60;99.90
58582;DHT22;44361;51.476;5.700;2023-02-13T16:29:09;10.50;99.90
58582;DHT22;44361;51.476;5.700;2023-02-13T16:31:38;10.30;99.90
58582;DHT22;44361;51.476;5.700;2023-02-13T16:34:30;10.20;99.90
58582;DHT22;44361;51.476;5.700;2023-02-13T16:36:55;10.00;99.90
58582;DHT22;44361;51.476;5.700;2023-02-13T16:39:31;9.90;99.90
58582;DHT22;44361;51.476;5.700;2023-02-13T16:41:59;9.90;99.90
58582;DHT22;44361;51.476;5.700;2023-02-13T16:44:27;9.80;99.90
58582;DHT22;44361;51.476;5.700;2023-02-13T16:49:24;9.60;99.90
58582;DHT22;44361;51.476;5.700;2023-02-13T16:51:51;9.50;99.90
58582;DHT22;44361;51.476;5.700;2023-02-13T16:54:21;9.30;99.90
58582;DHT22;44361;51.476;5.700;2023-02-13T16:56:56;9.10;99.90
58582;DHT22;44361;51.476;5.700;2023-02-13T16:59:33;9.00;99.90
58582;DHT22;44361;51.476;5.700;2023-02-13T17:02:15;8.80;99.90
58582;DHT22;44361;51.476;5.700;2023-02-13T17:04:43;8.70;99.90
58582;DHT22;44361;51.476;5.700;2023-02-13T17:07:17;8.50;99.90
58582;DHT22;44361;51.476;5.700;2023-02-13T17:09:43;8.50;99.90
58582;DHT22;44361;51.476;5.700;2023-02-13T17:12:17;8.40;99.90
58582;DHT22;44361;51.476;5.700;2023-02-13T17:14:43;8.30;99.90
58582;DHT22;44361;51.476;5.700;2023-02-13T17:17:11;8.20;99.90
58582;DHT22;44361;51.476;5.700;2023-02-13T17:19:37;8.10;99.90
58582;DHT22;44361;51.476;5.700;2023-02-13T17:22:03;8.00;99.90
58582;DHT22;44361;51.476;5.700;2023-02-13T17:24:29;8.00;99.90
58582;DHT22;44361;51.476;5.700;2023-02-13T17:26:54;7.90;99.90
58582;DHT22;44361;51.476;5.700;2023-02-13T17:29:20;7.80;99.90
58582;DHT22;44361;51.476;5.700;2023-02-13T17:31:45;7.70;99.90
58582;DHT22;44361;51.476;5.700;2023-02-13T17:34:11;7.70;99.90
58582;DHT22;44361;51.476;5.700;2023-02-13T17:36:37;7.60;99.90
58582;DHT22;44361;51.476;5.700;2023-02-13T17:39:02;7.60;99.90
58582;DHT22;44361;51.476;5.700;2023-02-13T17:41:28;7.50;99.90
58582;DHT22;44361;51.476;5.700;2023-02-13T17:43:54;7.40;99.90
58582;DHT22;44361;51.476;5.700;2023-02-13T17:46:19;7.40;99.90
58582;DHT22;44361;51.476;5.700;2023-02-13T17:48:45;7.30;99.90
58582;DHT22;44361;51.476;5.700;2023-02-13T17:51:13;7.30;99.90
58582;DHT22;44361;51.476;5.700;2023-02-13T17:53:39;7.20;99.90
58582;DHT22;44361;51.476;5.700;2023-02-13T17:56:05;7.10;99.90
58582;DHT22;44361;51.476;5.700;2023-02-13T17:58:30;7.10;99.90
58582;DHT22;44361;51.476;5.700;2023-02-13T18:00:56;7.00;99.90
58582;DHT22;44361;51.476;5.700;2023-02-13T18:03:21;7.00;99.90
58582;DHT22;44361;51.476;5.700;2023-02-13T18:05:48;6.90;99.90
58582;DHT22;44361;51.476;5.700;2023-02-13T18:08:14;6.90;99.90
58582;DHT22;44361;51.476;5.700;2023-02-13T18:10:39;6.80;99.90
58582;DHT22;44361;51.476;5.700;2023-02-13T18:13:05;6.80;99.90
58582;DHT22;44361;51.476;5.700;2023-02-13T18:15:32;6.70;99.90
58582;DHT22;44361;51.476;5.700;2023-02-13T18:17:58;6.60;99.90
58582;DHT22;44361;51.476;5.700;2023-02-13T18:20:24;6.60;99.90
58582;DHT22;44361;51.476;5.700;2023-02-13T18:22:50;6.60;99.90
58582;DHT22;44361;51.476;5.700;2023-02-13T18:25:17;6.50;99.90
58582;DHT22;44361;51.476;5.700;2023-02-13T18:27:42;6.50;99.90
58582;DHT22;44361;51.476;5.700;2023-02-13T18:30:10;6.40;99.90
58582;DHT22;44361;51.476;5.700;2023-02-13T18:32:36;6.40;99.90
58582;DHT22;44361;51.476;5.700;2023-02-13T18:35:02;6.30;99.90
58582;DHT22;44361;51.476;5.700;2023-02-13T18:37:27;6.30;99.90
58582;DHT22;44361;51.476;5.700;2023-02-13T18:39:54;6.20;99.90
58582;DHT22;44361;51.476;5.700;2023-02-13T18:42:20;6.20;99.90
58582;DHT22;44361;51.476;5.700;2023-02-13T18:44:46;6.10;99.90
58582;DHT22;44361;51.476;5.700;2023-02-13T18:47:11;6.10;99.90
58582;DHT22;44361;51.476;5.700;2023-02-13T18:49:38;6.00;99.90
58582;DHT22;44361;51.476;5.700;2023-02-13T18:52:04;6.00;99.90
58582;DHT22;44361;51.476;5.700;2023-02-13T18:54:29;6.00;99.90
58582;DHT22;44361;51.476;5.700;2023-02-13T18:56:55;6.00;99.90